Hlavní strana
METAR-TAF:

METAR-TAF

Letiště :

Vadsø, Norsko

zeměpisná šířka: 70-04N, zeměpisná délka: 029-51E, výška: 3 m

Aktuální stav počasí

Zpráva byla vytvořena před 12 minutami, v 09:50 UTC
Západoseverozápadní vítr 20 kt
Teplota 9°C
Vlhkost vzduchu 57%
Tlak 1029 hPa
Viditelnost 10 km a více
Polojasno ve výšce 3000 ft

METAR: ENVD 300950Z 29020KT 9999 SCT030 09/01 Q1029

Čas: 12:02 (10:02 UTC)

Předpověď počasí

Zpráva byla vytvořena před 17 hodinami a 2 minutami, v 17:00 UTC
Předpověď platná od 29 v 18 UTC do 29 v 23 UTC
Západoseverozápadní vítr 10 kt
Viditelnost 10 km a více
Skoro jasno ve výšce 1500 ft
Oblačno až skoro zataženo ve výšce 3000 ft

TAF: ENVD 291700Z 2918/2923 29010KT 9999 FEW015 BKN030

Stav a předpovědi počasí z více než 4 000 letišť (zprávy METAR a TAF).

Červené a žluté tečky na mapě představují dostupné meteorologické stanice.

Když kurzor umístíte na tečku, zobrazí se název stanice.

Pak kliknutím zobrazíte stav a předpověď počasí.

Chcete-li změnit mapu, kliknutím na zelené tlačítko se znaménkem +mapu přiblížíte, kliknutím na zelené tlačítko se znaménkem – mapu oddálíte a kliknutím na zelené šipky přejdete na sousední mapy.


METAR-TAF: